createdAt,value
2022-12-06T00:02:25.361Z,97227.91
2022-12-06T00:04:53.210Z,97238.28
2022-12-06T00:07:20.557Z,97235.34
2022-12-06T00:09:47.706Z,97232.03
2022-12-06T00:12:17.736Z,97228.94
2022-12-06T00:14:45.480Z,97226.47
2022-12-06T00:17:14.233Z,97226.47
2022-12-06T00:19:41.357Z,97222.34
2022-12-06T00:22:10.809Z,97221.28
2022-12-06T00:24:37.926Z,97220.34
2022-12-06T00:27:04.865Z,97221.91
2022-12-06T00:29:33.618Z,97226.25
2022-12-06T00:32:01.111Z,97231.44
2022-12-06T00:34:32.716Z,97222.09
2022-12-06T00:37:00.637Z,97224.81
2022-12-06T00:39:31.108Z,97221.28
2022-12-06T00:42:00.001Z,97226.59
2022-12-06T00:44:31.181Z,97222.34
2022-12-06T00:47:00.005Z,97219.63
2022-12-06T00:49:27.426Z,97217.03
2022-12-06T00:51:55.680Z,97221.06
2022-12-06T00:54:25.716Z,97221.06
2022-12-06T00:56:57.422Z,97227.09
2022-12-06T01:02:09.917Z,97226.03
2022-12-06T01:04:37.297Z,97224.84
2022-12-06T01:07:04.166Z,97222.38
2022-12-06T01:09:34.555Z,97218.47
2022-12-06T01:12:03.371Z,97218.22
2022-12-06T01:14:36.202Z,97219.41
2022-12-06T01:17:04.233Z,97226.38
2022-12-06T01:19:37.023Z,97220.94
2022-12-06T01:22:10.635Z,97212.91
2022-12-06T01:24:38.635Z,97215.63
2022-12-06T01:27:06.775Z,97216.56
2022-12-06T01:29:33.907Z,97220.81
2022-12-06T01:34:47.799Z,97224.47
2022-12-06T01:37:15.570Z,97222.69
2022-12-06T01:39:55.746Z,97224.22
2022-12-06T01:42:24.264Z,97227.78
2022-12-06T01:47:39.384Z,97213.50
2022-12-06T01:50:15.751Z,97217.63
2022-12-06T01:52:42.873Z,97216.94
2022-12-06T01:55:12.565Z,97227.19
2022-12-06T01:57:39.299Z,97215.75
2022-12-06T02:00:06.393Z,97221.06
2022-12-06T02:02:35.772Z,97212.56
2022-12-06T02:05:15.647Z,97209.38
2022-12-06T02:07:55.257Z,97209.84
2022-12-06T02:10:28.528Z,97209.97
2022-12-06T02:15:57.221Z,97210.56
2022-12-06T02:18:41.719Z,97211.38
2022-12-06T02:21:16.732Z,97206.19
2022-12-06T02:24:07.273Z,97201.25
2022-12-06T02:29:54.388Z,97204.66
2022-12-06T02:32:34.303Z,97202.66
2022-12-06T02:38:21.207Z,97197.69
2022-12-06T02:49:23.271Z,97196.38
2022-12-06T03:02:42.406Z,97194.53
2022-12-06T03:07:58.087Z,97200.53
2022-12-06T03:10:28.086Z,97198.78
2022-12-06T03:12:55.137Z,97200.28
2022-12-06T03:15:41.927Z,97195.81
2022-12-06T03:18:11.463Z,97203.59
2022-12-06T03:20:58.420Z,97203.84
2022-12-06T03:26:11.010Z,97204.66
2022-12-06T03:28:38.058Z,97202.06
2022-12-06T03:31:06.833Z,97201.69
2022-12-06T03:36:17.795Z,97201.94
2022-12-06T03:38:52.196Z,97196.03
2022-12-06T03:43:59.948Z,97192.63
2022-12-06T03:46:37.880Z,97182.50
2022-12-06T03:49:05.254Z,97191.81
2022-12-06T03:54:23.330Z,97186.25
2022-12-06T03:57:04.217Z,97188.03
2022-12-06T03:59:43.450Z,97181.88
2022-12-06T04:10:35.153Z,97188.34
2022-12-06T04:13:08.545Z,97188.59
2022-12-06T04:15:41.232Z,97188.47
2022-12-06T04:18:16.508Z,97186.72
2022-12-06T04:21:11.301Z,97190.13
2022-12-06T04:23:39.297Z,97190.94
2022-12-06T04:26:06.779Z,97189.19
2022-12-06T04:28:52.197Z,97188.81
2022-12-06T04:31:40.138Z,97190.59
2022-12-06T04:34:26.185Z,97184.69
2022-12-06T04:37:12.250Z,97185.63
2022-12-06T04:39:39.478Z,97183.88
2022-12-06T04:42:25.539Z,97180.44
2022-12-06T04:44:52.710Z,97186.47
2022-12-06T04:47:20.687Z,97186.59
2022-12-06T04:49:49.262Z,97185.63
2022-12-06T04:52:16.825Z,97182.09
2022-12-06T04:54:47.182Z,97191.41
2022-12-06T04:57:16.140Z,97186.47
2022-12-06T04:59:46.826Z,97196.03
2022-12-06T05:02:15.384Z,97191.78
2022-12-06T05:04:45.785Z,97187.91
2022-12-06T05:07:19.226Z,97187.06
2022-12-06T05:09:48.194Z,97190.59
2022-12-06T05:12:18.184Z,97186.22
2022-12-06T05:14:45.255Z,97185.38
2022-12-06T05:17:13.208Z,97182.91
2022-12-06T05:19:40.271Z,97180.19
2022-12-06T05:22:07.722Z,97178.56
2022-12-06T05:24:35.365Z,97180.09
2022-12-06T05:27:03.261Z,97176.69
2022-12-06T05:29:31.301Z,97181.63
2022-12-06T05:32:00.716Z,97188.72
2022-12-06T05:34:28.843Z,97185.19
2022-12-06T05:36:56.376Z,97188.72
2022-12-06T05:39:24.150Z,97195.56
2022-12-06T05:41:51.215Z,97187.91
2022-12-06T05:44:20.883Z,97185.38
2022-12-06T05:46:48.962Z,97182.09
2022-12-06T05:49:16.374Z,97176.91
2022-12-06T05:51:47.770Z,97180.31
2022-12-06T05:54:23.598Z,97182.09
2022-12-06T05:56:51.250Z,97182.56
2022-12-06T05:59:18.721Z,97179.50
2022-12-06T06:01:46.582Z,97175.25
2022-12-06T06:04:14.259Z,97179.50
2022-12-06T06:06:41.625Z,97186.22
2022-12-06T06:09:12.521Z,97177.50
2022-12-06T06:11:40.216Z,97180.81
2022-12-06T06:14:10.075Z,97181.38
2022-12-06T06:16:37.046Z,97185.88
2022-12-06T06:19:05.346Z,97188.47
2022-12-06T06:21:32.827Z,97181.38
2022-12-06T06:24:00.319Z,97174.53
2022-12-06T06:26:28.301Z,97178.91
2022-12-06T06:28:55.838Z,97179.50
2022-12-06T06:31:23.049Z,97175.38
2022-12-06T06:33:50.180Z,97176.91
2022-12-06T06:36:17.351Z,97175.00
2022-12-06T06:38:45.679Z,97172.53
2022-12-06T06:41:12.622Z,97179.50
2022-12-06T06:43:41.252Z,97178.28
2022-12-06T06:46:08.831Z,97191.28
2022-12-06T06:48:37.930Z,97188.56
2022-12-06T06:51:12.020Z,97180.63
2022-12-06T06:53:46.893Z,97182.28
2022-12-06T06:56:15.812Z,97183.22
2022-12-06T06:58:46.228Z,97196.91
2022-12-06T07:01:25.451Z,97191.03
2022-12-06T07:03:55.051Z,97194.56
2022-12-06T07:06:23.597Z,97192.66
2022-12-06T07:08:56.565Z,97193.50
2022-12-06T07:11:27.473Z,97184.88
2022-12-06T07:13:54.913Z,97198.69
2022-12-06T07:16:22.695Z,97185.63
2022-12-06T07:18:50.314Z,97187.97
2022-12-06T07:21:18.959Z,97189.72
2022-12-06T07:23:48.919Z,97188.91
2022-12-06T07:26:19.056Z,97184.66
2022-12-06T07:28:49.463Z,97185.63
2022-12-06T07:31:20.902Z,97188.09
2022-12-06T07:33:48.379Z,97192.78
2022-12-06T07:36:15.386Z,97189.47
2022-12-06T07:38:42.913Z,97187.34
2022-12-06T07:41:29.180Z,97196.66
2022-12-06T07:44:15.119Z,97192.53
2022-12-06T07:46:42.421Z,97194.88
2022-12-06T07:49:09.370Z,97192.16
2022-12-06T07:51:36.236Z,97194.50
2022-12-06T07:54:05.527Z,97196.75
2022-12-06T07:56:32.570Z,97195.41
2022-12-06T07:58:59.527Z,97201.19
2022-12-06T08:01:26.631Z,97200.09
2022-12-06T08:03:56.093Z,97203.41
2022-12-06T08:06:24.613Z,97203.06
2022-12-06T08:08:57.993Z,97194.19
2022-12-06T08:11:24.924Z,97204.56
2022-12-06T08:13:55.164Z,97205.41
2022-12-06T08:16:22.602Z,97206.47
2022-12-06T08:18:50.401Z,97213.56
2022-12-06T08:21:20.023Z,97222.31
2022-12-06T08:23:47.194Z,97217.81
2022-12-06T08:26:15.955Z,97219.47
2022-12-06T08:28:45.171Z,97227.84
2022-12-06T08:31:24.658Z,97225.38
2022-12-06T08:33:54.702Z,97217.31
2022-12-06T08:36:22.684Z,97224.84
2022-12-06T08:38:52.813Z,97220.22
2022-12-06T08:41:41.203Z,97226.84
2022-12-06T08:44:24.572Z,97219.88
2022-12-06T08:49:42.177Z,97224.00
2022-12-06T08:52:10.810Z,97229.75
2022-12-06T08:54:56.368Z,97229.91
2022-12-06T09:00:10.183Z,97231.16
2022-12-06T09:02:44.630Z,97232.81
2022-12-06T09:05:12.639Z,97230.78
2022-12-06T09:07:41.365Z,97240.13
2022-12-06T09:15:49.144Z,97237.44
2022-12-06T09:20:52.642Z,97241.09
2022-12-06T09:23:32.262Z,97234.81
2022-12-06T09:25:59.390Z,97236.31
2022-12-06T09:28:28.318Z,97228.25
2022-12-06T09:30:55.960Z,97230.47
2022-12-06T09:33:22.906Z,97234.84
2022-12-06T09:35:52.720Z,97239.91
2022-12-06T09:38:24.820Z,97248.19
2022-12-06T09:40:56.240Z,97236.81
2022-12-06T09:43:27.224Z,97250.78
2022-12-06T09:46:03.726Z,97246.41
2022-12-06T09:51:39.872Z,97250.00
2022-12-06T09:54:21.782Z,97243.69
2022-12-06T09:56:52.152Z,97246.72
2022-12-06T09:59:31.855Z,97243.03
2022-12-06T10:02:22.317Z,97245.09
2022-12-06T10:04:49.059Z,97240.22
2022-12-06T10:07:29.188Z,97241.06
2022-12-06T10:12:54.672Z,97234.63
2022-12-06T10:15:37.600Z,97238.88
2022-12-06T10:18:06.163Z,97242.16
2022-12-06T10:20:45.924Z,97237.09
2022-12-06T10:23:18.381Z,97238.63
2022-12-06T10:26:04.448Z,97240.25
2022-12-06T10:28:32.575Z,97234.22
2022-12-06T10:31:01.102Z,97231.38
2022-12-06T10:33:35.966Z,97237.84
2022-12-06T10:36:04.291Z,97228.00
2022-12-06T10:38:45.813Z,97230.19
2022-12-06T10:41:30.990Z,97227.50
2022-12-06T10:44:05.214Z,97224.78
2022-12-06T10:46:55.675Z,97216.19
2022-12-06T10:49:28.146Z,97212.22
2022-12-06T10:52:01.372Z,97213.59
2022-12-06T10:54:46.813Z,97216.66
2022-12-06T10:57:21.684Z,97214.56
2022-12-06T10:59:54.693Z,97218.28
2022-12-06T11:02:40.855Z,97210.88
2022-12-06T11:05:10.970Z,97203.06
2022-12-06T11:07:38.344Z,97203.91
2022-12-06T11:10:14.070Z,97200.31
2022-12-06T11:12:40.857Z,97207.59
2022-12-06T11:15:07.522Z,97194.84
2022-12-06T11:17:34.932Z,97202.94
2022-12-06T11:20:12.142Z,97194.69
2022-12-06T11:22:41.950Z,97196.31
2022-12-06T11:25:28.999Z,97196.59
2022-12-06T11:27:56.934Z,97194.41
2022-12-06T11:30:23.885Z,97181.78
2022-12-06T11:32:50.965Z,97189.31
2022-12-06T11:35:19.990Z,97184.25
2022-12-06T11:37:46.689Z,97186.19
2022-12-06T11:40:24.007Z,97179.84
2022-12-06T11:42:50.521Z,97181.47
2022-12-06T11:45:25.255Z,97182.06
2022-12-06T11:47:59.412Z,97183.44
2022-12-06T11:50:26.268Z,97173.69
2022-12-06T11:52:57.307Z,97186.03
2022-12-06T11:55:25.546Z,97183.72
2022-12-06T11:57:53.884Z,97191.34
2022-12-06T12:00:21.710Z,97186.69
2022-12-06T12:02:49.523Z,97190.06
2022-12-06T12:05:24.403Z,97182.94
2022-12-06T12:08:01.402Z,97183.91
2022-12-06T12:10:41.315Z,97180.34
2022-12-06T12:13:29.526Z,97178.69
2022-12-06T12:15:56.519Z,97188.69
2022-12-06T12:18:24.725Z,97187.31
2022-12-06T12:20:51.415Z,97178.66
2022-12-06T12:23:19.011Z,97183.59
2022-12-06T12:25:58.290Z,97190.47
2022-12-06T12:28:25.938Z,97191.56
2022-12-06T12:30:53.042Z,97184.97
2022-12-06T12:33:20.238Z,97186.88
2022-12-06T12:35:48.256Z,97184.50
2022-12-06T12:38:23.244Z,97177.56
2022-12-06T12:40:59.909Z,97177.25
2022-12-06T12:43:27.640Z,97179.03
2022-12-06T12:46:07.985Z,97182.59
2022-12-06T12:48:34.734Z,97182.44
2022-12-06T12:51:02.516Z,97185.75
2022-12-06T12:53:30.447Z,97180.53
2022-12-06T12:56:12.464Z,97183.13
2022-12-06T12:58:39.116Z,97187.13
2022-12-06T13:01:24.023Z,97179.31
2022-12-06T13:03:54.938Z,97183.59
2022-12-06T13:06:26.776Z,97181.34
2022-12-06T13:08:53.436Z,97185.75
2022-12-06T13:11:20.047Z,97189.03
2022-12-06T13:13:48.001Z,97184.38
2022-12-06T13:16:15.732Z,97181.88
2022-12-06T13:18:43.234Z,97181.06
2022-12-06T13:21:22.058Z,97171.34
2022-12-06T13:23:49.622Z,97173.81
2022-12-06T13:26:22.924Z,97171.78
2022-12-06T13:28:51.107Z,97175.88
2022-12-06T13:31:19.184Z,97176.19
2022-12-06T13:33:47.893Z,97168.41
2022-12-06T13:36:14.567Z,97169.91
2022-12-06T13:38:41.709Z,97171.69
2022-12-06T13:41:15.161Z,97173.19
2022-12-06T13:43:50.830Z,97170.47
2022-12-06T13:46:23.069Z,97173.47
2022-12-06T13:48:50.062Z,97163.31
2022-12-06T13:51:34.981Z,97156.47
2022-12-06T13:54:06.971Z,97170.56
2022-12-06T13:56:33.578Z,97170.69
2022-12-06T13:59:04.407Z,97176.59
2022-12-06T14:01:39.581Z,97171.00
2022-12-06T14:06:52.439Z,97168.81
2022-12-06T14:09:18.987Z,97171.00
2022-12-06T14:11:45.577Z,97172.38
2022-12-06T14:14:18.677Z,97179.22
2022-12-06T14:16:46.413Z,97174.28
2022-12-06T14:19:22.204Z,97173.59
2022-12-06T14:21:55.136Z,97181.91
2022-12-06T14:24:38.439Z,97176.03
2022-12-06T14:27:12.656Z,97173.25
2022-12-06T14:29:39.186Z,97173.53
2022-12-06T14:32:05.856Z,97167.50
2022-12-06T14:34:33.100Z,97172.84
2022-12-06T14:37:00.232Z,97168.59
2022-12-06T14:39:28.785Z,97173.59
2022-12-06T14:42:19.762Z,97176.47
2022-12-06T14:44:47.147Z,97171.41
2022-12-06T14:47:14.703Z,97178.25
2022-12-06T14:50:00.080Z,97179.06
2022-12-06T14:52:27.708Z,97178.13
2022-12-06T14:55:12.578Z,97175.78
2022-12-06T14:57:44.513Z,97174.13
2022-12-06T15:00:18.448Z,97181.25
2022-12-06T15:03:03.518Z,97177.00
2022-12-06T15:05:31.361Z,97177.97
2022-12-06T15:07:57.950Z,97175.47
2022-12-06T15:10:25.767Z,97175.72
2022-12-06T15:12:58.266Z,97175.84
2022-12-06T15:15:34.770Z,97175.84
2022-12-06T15:18:22.057Z,97174.47
2022-12-06T15:20:50.002Z,97174.84
2022-12-06T15:23:19.590Z,97178.69
2022-12-06T15:25:46.091Z,97170.28
2022-12-06T15:28:16.901Z,97173.41
2022-12-06T15:30:46.144Z,97176.41
2022-12-06T15:33:15.229Z,97175.81
2022-12-06T15:35:42.262Z,97180.34
2022-12-06T15:38:09.257Z,97177.13
2022-12-06T15:40:36.682Z,97185.06
2022-12-06T15:43:03.406Z,97173.28
2022-12-06T15:45:32.162Z,97176.97
2022-12-06T15:47:58.719Z,97173.78
2022-12-06T15:50:25.199Z,97178.53
2022-12-06T15:52:51.758Z,97172.19
2022-12-06T15:55:18.646Z,97178.47
2022-12-06T15:57:45.324Z,97174.22
2022-12-06T16:00:12.014Z,97173.41
2022-12-06T16:02:38.767Z,97170.22
2022-12-06T16:05:05.903Z,97169.63
2022-12-06T16:07:32.623Z,97171.91
2022-12-06T16:09:59.385Z,97169.81
2022-12-06T16:12:46.303Z,97172.91
2022-12-06T16:15:12.819Z,97172.56
2022-12-06T16:17:39.405Z,97174.84
2022-12-06T16:20:24.512Z,97165.75
2022-12-06T16:23:09.702Z,97166.97
2022-12-06T16:25:36.249Z,97167.31
2022-12-06T16:28:02.782Z,97171.91
2022-12-06T16:30:32.864Z,97172.16
2022-12-06T16:33:05.821Z,97163.41
2022-12-06T16:35:34.043Z,97160.69
2022-12-06T16:38:00.601Z,97159.41
2022-12-06T16:40:28.297Z,97164.34
2022-12-06T16:42:54.823Z,97166.00
2022-12-06T16:45:21.360Z,97165.75
2022-12-06T16:47:48.815Z,97169.38
2022-12-06T16:50:24.357Z,97169.59
2022-12-06T16:52:51.179Z,97167.81
2022-12-06T16:55:17.736Z,97168.78
2022-12-06T16:57:44.475Z,97172.06
2022-12-06T17:00:11.490Z,97163.59
2022-12-06T17:02:38.033Z,97170.19
2022-12-06T17:05:06.897Z,97163.94
2022-12-06T17:07:39.047Z,97168.06
2022-12-06T17:10:06.058Z,97160.97
2022-12-06T17:12:32.720Z,97158.22
2022-12-06T17:14:59.764Z,97155.50
2022-12-06T17:17:29.325Z,97160.69
2022-12-06T17:19:56.453Z,97155.50
2022-12-06T17:22:23.077Z,97153.59
2022-12-06T17:24:49.658Z,97153.59
2022-12-06T17:27:16.366Z,97153.59
2022-12-06T17:29:43.844Z,97155.25
2022-12-06T17:32:10.537Z,97151.13
2022-12-06T17:34:37.170Z,97148.66
2022-12-06T17:37:03.989Z,97152.22
2022-12-06T17:39:30.569Z,97148.66
2022-12-06T17:42:15.748Z,97146.31
2022-12-06T17:44:42.290Z,97144.81
2022-12-06T17:47:08.822Z,97146.56
2022-12-06T17:49:36.290Z,97145.88
2022-12-06T17:52:02.907Z,97147.66
2022-12-06T17:54:29.458Z,97139.25
2022-12-06T17:56:56.206Z,97143.19
2022-12-06T17:59:23.641Z,97143.81
2022-12-06T18:02:14.166Z,97138.63
2022-12-06T18:04:37.141Z,97143.81
2022-12-06T18:07:03.646Z,97142.41
2022-12-06T18:09:30.170Z,97141.00
2022-12-06T18:11:56.876Z,97146.19
2022-12-06T18:14:23.420Z,97142.19
2022-12-06T18:16:50.018Z,97141.25
2022-12-06T18:19:17.593Z,97140.28
2022-12-06T18:21:44.138Z,97136.06
2022-12-06T18:24:32.026Z,97140.28
2022-12-06T18:26:58.511Z,97141.00
2022-12-06T18:29:25.045Z,97137.44
2022-12-06T18:31:52.125Z,97138.88
2022-12-06T18:34:18.952Z,97133.69
2022-12-06T18:36:45.471Z,97135.34
2022-12-06T18:39:15.406Z,97130.97
2022-12-06T18:41:43.175Z,97127.28
2022-12-06T18:44:09.734Z,97126.34
2022-12-06T18:46:38.027Z,97131.16
2022-12-06T18:49:04.664Z,97129.13
2022-12-06T18:51:33.132Z,97131.34
2022-12-06T18:54:00.878Z,97130.88
2022-12-06T18:56:27.579Z,97133.78
2022-12-06T18:58:54.126Z,97129.03
2022-12-06T19:01:25.062Z,97126.06
2022-12-06T19:03:51.858Z,97123.91
2022-12-06T19:06:19.555Z,97130.50
2022-12-06T19:08:46.312Z,97129.53
2022-12-06T19:11:17.764Z,97126.81
2022-12-06T19:13:49.472Z,97129.16
2022-12-06T19:16:16.479Z,97130.31
2022-12-06T19:18:43.136Z,97135.00
2022-12-06T19:21:09.727Z,97128.28
2022-12-06T19:23:36.317Z,97124.97
2022-12-06T19:26:02.998Z,97129.78
2022-12-06T19:28:29.848Z,97133.22
2022-12-06T19:30:59.892Z,97138.03
2022-12-06T19:33:26.500Z,97135.56
2022-12-06T19:35:59.629Z,97133.66
2022-12-06T19:38:26.450Z,97140.53
2022-12-06T19:40:53.856Z,97132.06
2022-12-06T19:43:44.831Z,97128.78
2022-12-06T19:46:12.759Z,97138.09
2022-12-06T19:48:39.452Z,97133.72
2022-12-06T19:51:06.235Z,97133.72
2022-12-06T19:53:33.707Z,97128.38
2022-12-06T19:56:00.236Z,97124.81
2022-12-06T19:58:27.073Z,97127.56
2022-12-06T20:00:54.005Z,97118.81
2022-12-06T20:03:20.831Z,97126.34
2022-12-06T20:05:47.297Z,97126.09
2022-12-06T20:08:13.894Z,97119.00
2022-12-06T20:10:41.695Z,97108.59
2022-12-06T20:13:08.320Z,97112.13
2022-12-06T20:15:34.842Z,97109.53
2022-12-06T20:18:01.372Z,97109.66
2022-12-06T20:20:29.551Z,97105.41
2022-12-06T20:22:56.101Z,97106.38
2022-12-06T20:25:22.622Z,97109.66
2022-12-06T20:27:52.154Z,97111.19
2022-12-06T20:30:19.363Z,97102.31
2022-12-06T20:32:45.858Z,97099.84
2022-12-06T20:35:12.427Z,97106.56
2022-12-06T20:37:38.923Z,97101.50
2022-12-06T20:40:05.743Z,97103.13
2022-12-06T20:42:32.721Z,97108.34
2022-12-06T20:44:59.221Z,97101.09
2022-12-06T20:47:25.782Z,97099.31
2022-12-06T20:49:52.609Z,97097.66
2022-12-06T20:52:19.059Z,97101.09
2022-12-06T20:54:45.536Z,97093.44
2022-12-06T20:57:12.705Z,97092.19
2022-12-06T20:59:39.267Z,97094.81
2022-12-06T21:02:05.955Z,97094.66
2022-12-06T21:04:32.516Z,97082.09
2022-12-06T21:06:59.045Z,97087.56
2022-12-06T21:09:25.550Z,97087.81
2022-12-06T21:11:52.141Z,97080.16
2022-12-06T21:14:18.761Z,97087.28
2022-12-06T21:16:45.301Z,97081.66
2022-12-06T21:19:13.367Z,97084.53
2022-12-06T21:21:41.007Z,97081.81
2022-12-06T21:24:08.415Z,97083.44
2022-12-06T21:26:35.117Z,97089.75
2022-12-06T21:29:01.923Z,97083.03
2022-12-06T21:31:29.235Z,97087.28
2022-12-06T21:33:56.254Z,97080.44
2022-12-06T21:36:22.798Z,97083.44
2022-12-06T21:38:49.286Z,97083.44
2022-12-06T21:41:15.753Z,97080.84
2022-12-06T21:43:42.229Z,97079.19
2022-12-06T21:46:10.641Z,97078.50
2022-12-06T21:48:37.215Z,97076.59
2022-12-06T21:51:07.666Z,97074.97
2022-12-06T21:53:34.371Z,97075.78
2022-12-06T21:56:04.980Z,97077.41
2022-12-06T21:58:31.456Z,97068.94
2022-12-06T22:01:02.956Z,97066.19
2022-12-06T22:03:29.511Z,97068.78
2022-12-06T22:05:56.000Z,97073.88
2022-12-06T22:08:22.558Z,97071.41
2022-12-06T22:10:52.567Z,97068.94
2022-12-06T22:13:19.126Z,97072.09
2022-12-06T22:15:46.043Z,97073.03
2022-12-06T22:18:12.594Z,97080.84
2022-12-06T22:20:39.071Z,97072.66
2022-12-06T22:23:05.574Z,97070.19
2022-12-06T22:25:32.202Z,97079.50
2022-12-06T22:27:58.635Z,97083.88
2022-12-06T22:30:25.326Z,97079.34
2022-12-06T22:32:52.055Z,97075.81
2022-12-06T22:35:18.583Z,97077.47
2022-12-06T22:37:45.095Z,97081.25
2022-12-06T22:40:11.779Z,97074.28
2022-12-06T22:42:38.362Z,97069.22
2022-12-06T22:45:05.160Z,97070.19
2022-12-06T22:47:31.658Z,97071.81
2022-12-06T22:49:58.374Z,97064.00
2022-12-06T22:52:25.027Z,97065.78
2022-12-06T22:54:51.529Z,97066.47
2022-12-06T22:57:17.967Z,97063.75
2022-12-06T22:59:44.619Z,97057.16
2022-12-06T23:02:11.175Z,97049.81
2022-12-06T23:04:37.673Z,97059.25
2022-12-06T23:07:04.111Z,97052.41
2022-12-06T23:09:30.642Z,97050.75
2022-12-06T23:11:57.127Z,97056.75
2022-12-06T23:14:23.596Z,97052.28
2022-12-06T23:16:50.149Z,97049.56
2022-12-06T23:19:16.715Z,97049.41
2022-12-06T23:21:43.226Z,97040.53
2022-12-06T23:24:10.417Z,97035.31
2022-12-06T23:26:40.849Z,97045.44
2022-12-06T23:29:07.434Z,97039.69
2022-12-06T23:31:35.030Z,97038.88
2022-12-06T23:34:03.407Z,97042.16
2022-12-06T23:36:32.221Z,97043.53
2022-12-06T23:38:58.703Z,97041.88
2022-12-06T23:41:26.542Z,97036.00
2022-12-06T23:43:53.206Z,97036.13
2022-12-06T23:46:22.427Z,97042.16
2022-12-06T23:48:49.735Z,97043.81
2022-12-06T23:51:17.111Z,97043.81
2022-12-06T23:53:44.320Z,97035.72
2022-12-06T23:56:11.999Z,97036.69
2022-12-06T23:58:38.726Z,97028.75
